Time;durP1;ratioP1;P1;durP2;ratioP2;P2;SDS_P1;SDS_P2;PMS_P1;PMS_P2;Temp;Humidity;BMP_temperature;BMP_pressure;BME280_temperature;BME280_humidity;BME280_pressure;Samples;Min_cycle;Max_cycle;Signal;HPM_P1;HPM_P2
2023/01/30 00:02:22;;;;;;;26.85;17.10;;;1.60;99.90;;;;;;4999163;28;20715;-75
2023/01/30 00:05:09;;;;;;;25.00;17.35;;;1.60;99.90;;;;;;5002934;28;20840;-75
2023/01/30 00:07:55;;;;;;;27.45;18.45;;;1.60;99.90;;;;;;5002083;28;20229;-75
2023/01/30 00:10:40;;;;;;;26.20;18.23;;;1.60;99.90;;;;;;4999065;28;20621;-75
2023/01/30 00:13:27;;;;;;;28.92;18.20;;;1.80;99.90;;;;;;5008748;28;20289;-75
2023/01/30 00:16:12;;;;;;;27.05;17.67;;;1.90;99.90;;;;;;5015753;28;20723;-75
2023/01/30 00:18:58;;;;;;;27.80;17.88;;;1.90;99.90;;;;;;5007674;28;20198;-75
2023/01/30 00:21:45;;;;;;;24.85;17.85;;;1.90;99.90;;;;;;5014281;28;20202;-75
2023/01/30 00:24:31;;;;;;;31.70;18.70;;;1.80;99.90;;;;;;5003896;28;20242;-75
2023/01/30 00:27:16;;;;;;;27.13;18.55;;;1.70;99.90;;;;;;5003062;28;20233;-75
2023/01/30 00:30:04;;;;;;;25.55;17.75;;;1.50;99.90;;;;;;5006216;28;20283;-75
2023/01/30 00:32:54;;;;;;;27.98;19.45;;;1.50;99.90;;;;;;5004013;28;20269;-75
2023/01/30 00:35:43;;;;;;;30.38;18.55;;;1.40;99.90;;;;;;5006713;28;20222;-75
2023/01/30 00:38:30;;;;;;;31.38;20.88;;;1.40;99.90;;;;;;5015054;28;20296;-75
2023/01/30 00:41:17;;;;;;;30.20;20.17;;;1.40;99.90;;;;;;5003878;28;20233;-74
2023/01/30 00:47:07;;;;;;;30.27;20.05;;;1.30;99.90;;;;;;5008599;28;20636;-75
2023/01/30 00:49:53;;;;;;;27.35;19.27;;;1.40;99.90;;;;;;4996757;28;20684;-74
2023/01/30 00:52:39;;;;;;;26.42;18.80;;;1.30;99.90;;;;;;5004930;28;20207;-75
2023/01/30 00:55:26;;;;;;;28.15;19.70;;;1.30;99.90;;;;;;5016936;28;20267;-75
2023/01/30 00:58:13;;;;;;;30.65;20.08;;;1.30;99.90;;;;;;5008300;28;20788;-75
2023/01/30 01:00:58;;;;;;;30.05;20.50;;;1.40;99.90;;;;;;5011687;28;20209;-74
2023/01/30 01:03:44;;;;;;;29.77;19.10;;;1.40;99.90;;;;;;5014201;28;20222;-75
2023/01/30 01:06:30;;;;;;;28.80;18.80;;;1.30;99.90;;;;;;5005862;28;20637;-75
2023/01/30 01:09:16;;;;;;;25.52;18.55;;;1.40;99.90;;;;;;5008203;28;20218;-74
2023/01/30 01:12:03;;;;;;;29.50;19.15;;;1.40;99.90;;;;;;5019505;28;20198;-74
2023/01/30 01:14:49;;;;;;;33.60;20.95;;;1.30;99.90;;;;;;5008936;28;20198;-74
2023/01/30 01:17:35;;;;;;;31.25;18.38;;;1.40;99.90;;;;;;5003404;28;20253;-75
2023/01/30 01:20:22;;;;;;;28.73;19.20;;;1.40;99.90;;;;;;5001468;28;20206;-75
2023/01/30 01:23:10;;;;;;;28.60;19.05;;;1.30;99.90;;;;;;5013500;28;20229;-75
2023/01/30 01:25:56;;;;;;;28.90;19.13;;;1.40;99.90;;;;;;5022050;28;20225;-75
2023/01/30 01:28:43;;;;;;;28.65;19.80;;;1.40;99.90;;;;;;5017482;28;20202;-75
2023/01/30 01:31:29;;;;;;;27.17;18.65;;;1.40;99.90;;;;;;5011897;28;20202;-74
2023/01/30 01:34:14;;;;;;;25.63;17.77;;;1.40;99.90;;;;;;5003319;28;20277;-75
2023/01/30 01:37:00;;;;;;;25.45;17.92;;;1.40;99.90;;;;;;5017760;28;20232;-74
2023/01/30 01:42:49;;;;;;;28.48;17.67;;;1.60;99.90;;;;;;5017032;28;20284;-74
2023/01/30 01:45:36;;;;;;;28.50;19.05;;;1.70;99.90;;;;;;5011402;28;20207;-75
2023/01/30 01:48:27;;;;;;;25.88;16.48;;;1.70;99.90;;;;;;5008377;28;20682;-75
2023/01/30 01:51:19;;;;;;;27.52;17.95;;;1.70;99.90;;;;;;5017485;28;20671;-75
2023/01/30 01:54:09;;;;;;;28.80;18.13;;;1.70;99.90;;;;;;5019639;28;20564;-75
2023/01/30 01:56:55;;;;;;;26.42;18.27;;;1.70;99.90;;;;;;5014339;28;20234;-74
2023/01/30 01:59:46;;;;;;;26.92;17.70;;;1.50;99.90;;;;;;5007719;28;20249;-75
2023/01/30 02:02:34;;;;;;;25.88;17.10;;;1.50;99.90;;;;;;5005169;28;20226;-75
2023/01/30 02:05:20;;;;;;;26.55;17.83;;;1.50;99.90;;;;;;5016318;28;20205;-75
2023/01/30 02:08:08;;;;;;;25.55;17.63;;;1.60;99.90;;;;;;5022236;28;20206;-75
2023/01/30 02:11:08;;;;;;;28.15;18.45;;;1.50;99.90;;;;;;5010177;28;20572;-75
2023/01/30 02:13:54;;;;;;;26.08;17.95;;;1.50;99.90;;;;;;5013904;28;20309;-74
2023/01/30 02:16:40;;;;;;;29.95;19.10;;;1.50;99.90;;;;;;5011074;28;20276;-75
2023/01/30 02:19:34;;;;;;;30.20;18.60;;;1.50;99.90;;;;;;5007666;28;20719;-75
2023/01/30 02:23:02;;;;;;;33.13;19.88;;;1.50;99.90;;;;;;5006368;28;20241;-75
2023/01/30 02:26:24;;;;;;;30.45;18.92;;;1.50;99.90;;;;;;5012058;28;20281;-75
2023/01/30 02:29:38;;;;;;;28.77;18.98;;;1.40;99.90;;;;;;4984792;28;20264;-74
2023/01/30 02:32:32;;;;;;;29.33;18.52;;;1.40;99.90;;;;;;5020626;28;20197;-75
2023/01/30 02:35:27;;;;;;;29.48;19.50;;;1.40;99.90;;;;;;5006877;28;20209;-74
2023/01/30 02:38:26;;;;;;;25.25;17.30;;;1.40;99.90;;;;;;4999170;28;20199;-74
2023/01/30 02:41:21;;;;;;;31.20;18.95;;;1.40;99.90;;;;;;5006751;28;20223;-75
2023/01/30 02:44:16;;;;;;;30.58;18.63;;;1.40;99.90;;;;;;5010086;28;20337;-74
2023/01/30 02:47:07;;;;;;;27.60;17.33;;;1.60;99.90;;;;;;4999384;28;20719;-75
2023/01/30 02:49:59;;;;;;;29.52;17.75;;;1.60;99.90;;;;;;4997401;28;20734;-75
2023/01/30 02:52:45;;;;;;;30.50;19.80;;;1.70;99.90;;;;;;5016993;28;20673;-74
2023/01/30 02:55:30;;;;;;;25.10;16.73;;;1.60;99.90;;;;;;5012259;28;20214;-75
2023/01/30 02:58:21;;;;;;;29.35;18.02;;;1.60;99.90;;;;;;5007495;28;20222;-75
2023/01/30 03:01:40;;;;;;;30.60;17.70;;;1.60;99.90;;;;;;5017415;28;20209;-75
2023/01/30 03:04:44;;;;;;;27.30;18.30;;;1.50;99.90;;;;;;5021468;28;20226;-74
2023/01/30 03:07:40;;;;;;;30.15;18.02;;;1.50;99.90;;;;;;5001940;28;20225;-75
2023/01/30 03:10:34;;;;;;;29.23;18.45;;;1.50;99.90;;;;;;5002751;28;20333;-74
2023/01/30 03:13:26;;;;;;;27.80;19.40;;;1.50;99.90;;;;;;5012864;28;20206;-75
2023/01/30 03:16:17;;;;;;;30.23;18.38;;;1.50;99.90;;;;;;5007693;28;20229;-75
2023/01/30 03:19:05;;;;;;;27.50;18.85;;;1.60;99.90;;;;;;5000944;28;20246;-74
2023/01/30 03:21:51;;;;;;;28.33;17.77;;;1.70;99.90;;;;;;5006037;28;20206;-75
2023/01/30 03:24:38;;;;;;;34.50;18.73;;;1.70;99.90;;;;;;5005577;28;20234;-75
2023/01/30 03:27:24;;;;;;;26.15;17.02;;;1.70;99.90;;;;;;5001962;28;20241;-75
2023/01/30 03:30:11;;;;;;;31.70;19.48;;;1.60;99.90;;;;;;5002751;28;20210;-75
2023/01/30 03:32:57;;;;;;;33.13;20.10;;;1.50;99.90;;;;;;5003074;28;20206;-75
2023/01/30 03:35:43;;;;;;;31.80;20.13;;;1.60;99.90;;;;;;5010019;28;20202;-74
2023/01/30 03:38:29;;;;;;;26.35;17.33;;;1.60;99.90;;;;;;5001654;28;20202;-75
2023/01/30 03:41:16;;;;;;;35.20;19.58;;;1.70;99.90;;;;;;5013801;28;20202;-75
2023/01/30 03:44:02;;;;;;;26.95;17.48;;;1.70;99.90;;;;;;4997826;28;20222;-74
2023/01/30 03:46:47;;;;;;;28.95;18.58;;;1.60;99.90;;;;;;5007703;28;20662;-74
2023/01/30 03:49:33;;;;;;;31.85;19.83;;;1.70;99.90;;;;;;5007990;28;20260;-74
2023/01/30 03:52:19;;;;;;;29.92;20.17;;;1.50;99.90;;;;;;5000343;28;20218;-75
2023/01/30 03:55:05;;;;;;;32.22;19.85;;;1.50;99.90;;;;;;5002173;28;20273;-75
2023/01/30 03:57:56;;;;;;;29.20;18.70;;;1.40;99.90;;;;;;4998545;28;20226;-75
2023/01/30 04:00:42;;;;;;;36.63;22.20;;;1.50;99.90;;;;;;5013652;28;20209;-74
2023/01/30 04:03:28;;;;;;;29.85;19.85;;;1.50;99.90;;;;;;5009003;28;20603;-74
2023/01/30 04:06:14;;;;;;;33.33;21.65;;;1.60;99.90;;;;;;5002196;28;20222;-75
2023/01/30 04:08:59;;;;;;;31.58;20.85;;;1.50;99.90;;;;;;5006598;28;20276;-75
2023/01/30 04:11:45;;;;;;;29.95;20.10;;;1.40;99.90;;;;;;5014478;28;20283;-75
2023/01/30 04:14:32;;;;;;;33.53;20.33;;;1.50;99.90;;;;;;5003859;28;20198;-75
2023/01/30 04:17:18;;;;;;;30.30;18.60;;;1.40;99.90;;;;;;4999732;28;20229;-75
2023/01/30 04:20:04;;;;;;;31.67;19.40;;;1.30;99.90;;;;;;5003128;28;20211;-75
2023/01/30 04:22:50;;;;;;;34.67;21.17;;;1.30;99.90;;;;;;5010399;28;21015;-75
2023/01/30 04:25:36;;;;;;;32.58;19.90;;;1.30;99.90;;;;;;5011988;28;20702;-74
2023/01/30 04:28:22;;;;;;;36.33;20.45;;;1.30;99.90;;;;;;5001668;28;20210;-75
2023/01/30 04:31:09;;;;;;;31.27;18.67;;;1.30;99.90;;;;;;5005747;28;20691;-74
2023/01/30 04:33:54;;;;;;;33.70;20.75;;;1.20;99.90;;;;;;4998868;28;20213;-75
2023/01/30 04:36:40;;;;;;;35.83;19.83;;;1.20;99.90;;;;;;5001646;28;20241;-74
2023/01/30 04:39:26;;;;;;;33.42;20.65;;;1.10;99.90;;;;;;5006276;28;20679;-75
2023/01/30 04:42:11;;;;;;;30.15;18.75;;;1.10;99.90;;;;;;5006336;28;20691;-74
2023/01/30 04:44:57;;;;;;;35.22;20.80;;;1.10;99.90;;;;;;5004654;28;20238;-75
2023/01/30 04:47:44;;;;;;;33.03;20.10;;;1.20;99.90;;;;;;5006439;28;20230;-74
2023/01/30 04:50:30;;;;;;;32.58;18.67;;;1.20;99.90;;;;;;5014321;28;20218;-74
2023/01/30 04:53:16;;;;;;;29.75;19.77;;;1.20;99.90;;;;;;5006497;28;20254;-74
2023/01/30 04:56:02;;;;;;;33.65;20.15;;;1.10;99.90;;;;;;4999573;28;20222;-75
2023/01/30 04:58:48;;;;;;;29.70;19.27;;;1.10;99.90;;;;;;5003852;28;20210;-74
2023/01/30 05:01:36;;;;;;;29.95;19.75;;;1.20;99.90;;;;;;5014083;28;20279;-74
2023/01/30 05:04:22;;;;;;;30.08;18.92;;;1.20;99.90;;;;;;5008658;28;20222;-75
2023/01/30 05:07:08;;;;;;;30.33;18.63;;;1.30;99.90;;;;;;5007994;28;20234;-74
2023/01/30 05:09:54;;;;;;;29.10;17.70;;;1.40;99.90;;;;;;5017362;28;20435;-74
2023/01/30 05:12:39;;;;;;;35.03;18.92;;;1.40;99.90;;;;;;5008964;28;20211;-74
2023/01/30 05:15:25;;;;;;;32.85;17.85;;;1.40;99.90;;;;;;5004489;28;20209;-75
2023/01/30 05:18:11;;;;;;;30.20;19.50;;;1.30;99.90;;;;;;5005818;28;20305;-74
2023/01/30 05:21:05;;;;;;;27.05;18.35;;;1.30;99.90;;;;;;5008213;28;20282;-75
2023/01/30 05:23:51;;;;;;;30.55;19.27;;;1.30;99.90;;;;;;5016022;28;20360;-75
2023/01/30 05:26:37;;;;;;;29.95;18.35;;;1.40;99.90;;;;;;5011883;28;20592;-74
2023/01/30 05:29:23;;;;;;;32.78;19.05;;;1.40;99.90;;;;;;5005354;28;20580;-74
2023/01/30 05:32:12;;;;;;;29.45;17.92;;;1.40;99.90;;;;;;5007293;28;20202;-74
2023/01/30 05:34:58;;;;;;;28.58;17.40;;;1.40;99.90;;;;;;5016732;28;20679;-74
2023/01/30 05:37:49;;;;;;;26.85;17.00;;;1.40;99.90;;;;;;5002101;28;20230;-74
2023/01/30 05:40:35;;;;;;;28.58;17.45;;;1.40;99.90;;;;;;5017035;28;20731;-73
2023/01/30 05:43:20;;;;;;;25.40;16.48;;;1.50;99.90;;;;;;5002864;28;20683;-73
2023/01/30 05:46:07;;;;;;;27.48;18.17;;;1.50;99.90;;;;;;5001156;28;20739;-73
2023/01/30 05:48:52;;;;;;;29.80;18.10;;;1.50;99.90;;;;;;5005518;28;20225;-74
2023/01/30 05:51:38;;;;;;;26.92;16.38;;;1.60;99.90;;;;;;5010911;28;21237;-74
2023/01/30 05:54:25;;;;;;;26.27;17.75;;;1.40;99.90;;;;;;4999468;28;20206;-73
2023/01/30 05:57:11;;;;;;;26.48;17.13;;;1.50;99.90;;;;;;4995565;28;20234;-74
2023/01/30 05:59:57;;;;;;;23.17;16.00;;;1.50;99.90;;;;;;5015119;28;20219;-74
2023/01/30 06:02:42;;;;;;;32.35;16.70;;;1.50;99.90;;;;;;5016441;28;20210;-74
2023/01/30 06:05:28;;;;;;;26.15;16.85;;;1.60;99.90;;;;;;5010412;28;20304;-74
2023/01/30 06:08:13;;;;;;;26.27;15.05;;;1.60;99.90;;;;;;5007009;28;20201;-75
2023/01/30 06:11:02;;;;;;;27.65;15.80;;;1.60;99.90;;;;;;5009259;28;20210;-74
2023/01/30 06:13:48;;;;;;;25.67;15.82;;;1.60;99.90;;;;;;5005916;28;20246;-74
2023/01/30 06:16:33;;;;;;;31.05;16.08;;;1.50;99.90;;;;;;5005569;28;20226;-74
2023/01/30 06:19:19;;;;;;;26.15;14.88;;;1.50;99.90;;;;;;4998932;28;20210;-72
2023/01/30 06:22:04;;;;;;;26.95;17.55;;;1.40;99.90;;;;;;4998252;28;20742;-74
2023/01/30 06:24:50;;;;;;;26.60;16.52;;;1.40;99.90;;;;;;5001353;28;20230;-74
2023/01/30 06:27:37;;;;;;;24.55;15.45;;;1.40;99.90;;;;;;5002609;28;20368;-74
2023/01/30 06:30:23;;;;;;;26.77;15.20;;;1.40;99.90;;;;;;5002748;28;20206;-73
2023/01/30 06:33:10;;;;;;;24.02;15.57;;;1.50;99.90;;;;;;5000670;28;20248;-74
2023/01/30 06:35:56;;;;;;;27.58;15.70;;;1.50;99.90;;;;;;4999238;28;20341;-73
2023/01/30 06:38:42;;;;;;;23.98;15.30;;;1.60;99.90;;;;;;5013865;28;20222;-73
2023/01/30 06:41:28;;;;;;;23.17;14.48;;;1.60;99.90;;;;;;5009392;28;20226;-74
2023/01/30 06:44:15;;;;;;;21.50;15.93;;;1.50;99.90;;;;;;5009895;28;20229;-73
2023/01/30 06:47:00;;;;;;;24.27;15.70;;;1.50;99.90;;;;;;5000071;28;20268;-74
2023/01/30 06:49:48;;;;;;;25.92;14.88;;;1.60;99.90;;;;;;5014969;28;20202;-73
2023/01/30 06:52:33;;;;;;;23.52;15.27;;;1.70;99.90;;;;;;5005582;28;20209;-73
2023/01/30 06:55:21;;;;;;;25.90;15.07;;;1.60;99.90;;;;;;4996625;28;20226;-74
2023/01/30 06:58:08;;;;;;;26.13;15.63;;;1.70;99.90;;;;;;5002684;28;20218;-73
2023/01/30 07:00:55;;;;;;;24.85;14.88;;;1.70;99.90;;;;;;5008642;28;20225;-73
2023/01/30 07:03:40;;;;;;;23.50;14.80;;;1.60;99.90;;;;;;5014641;28;20209;-73
2023/01/30 07:06:26;;;;;;;20.15;13.27;;;1.70;99.90;;;;;;4999121;28;20274;-74
2023/01/30 07:09:12;;;;;;;23.02;13.77;;;1.70;99.90;;;;;;5006040;28;20221;-72
2023/01/30 07:11:57;;;;;;;20.83;12.55;;;1.70;99.90;;;;;;4999352;28;20576;-74
2023/01/30 07:14:43;;;;;;;23.50;14.50;;;1.80;99.90;;;;;;5015231;28;20194;-72
2023/01/30 07:17:30;;;;;;;19.63;12.65;;;1.80;99.90;;;;;;5010768;28;20235;-74
2023/01/30 07:20:16;;;;;;;20.33;12.55;;;1.90;99.90;;;;;;5005599;28;20317;-73
2023/01/30 07:23:02;;;;;;;18.55;11.60;;;1.90;99.90;;;;;;5012420;28;20735;-74
2023/01/30 07:25:48;;;;;;;22.58;14.65;;;2.00;99.90;;;;;;4997629;28;20222;-73
2023/01/30 07:28:34;;;;;;;20.45;13.30;;;1.90;99.90;;;;;;5010259;28;20568;-73
2023/01/30 07:31:19;;;;;;;20.88;14.27;;;1.90;99.90;;;;;;5000822;28;20215;-74
2023/01/30 07:34:06;;;;;;;20.63;13.15;;;1.90;99.90;;;;;;5003448;28;20338;-72
2023/01/30 07:36:52;;;;;;;21.73;13.48;;;1.80;99.90;;;;;;4999677;28;20591;-72
2023/01/30 07:39:38;;;;;;;29.92;18.23;;;1.80;99.90;;;;;;5005919;28;20573;-74
2023/01/30 07:42:24;;;;;;;21.70;14.40;;;1.80;99.90;;;;;;5002738;28;20252;-74
2023/01/30 07:45:10;;;;;;;20.95;14.60;;;1.90;99.90;;;;;;5008553;28;20257;-73
2023/01/30 07:47:56;;;;;;;23.25;15.57;;;1.90;99.90;;;;;;5018729;28;20612;-74
2023/01/30 07:50:44;;;;;;;17.83;13.18;;;1.90;99.90;;;;;;5025040;28;20256;-74
2023/01/30 07:53:29;;;;;;;21.50;14.30;;;1.90;99.90;;;;;;5025825;28;20218;-74
2023/01/30 07:56:17;;;;;;;27.50;16.92;;;1.90;99.90;;;;;;5013722;28;20300;-74
2023/01/30 07:59:04;;;;;;;28.52;16.77;;;1.90;99.90;;;;;;5017438;28;20202;-74
2023/01/30 08:01:50;;;;;;;63.10;28.30;;;2.00;99.90;;;;;;5027336;28;20201;-74
2023/01/30 08:04:35;;;;;;;21.65;15.10;;;2.00;99.90;;;;;;5017601;28;20300;-73
2023/01/30 08:07:22;;;;;;;35.58;19.38;;;2.00;99.90;;;;;;5017749;28;20225;-74
2023/01/30 08:10:10;;;;;;;21.58;14.27;;;2.00;99.90;;;;;;5029017;28;20205;-74
2023/01/30 08:12:55;;;;;;;29.98;16.83;;;2.00;99.90;;;;;;5027054;28;20201;-74
2023/01/30 08:15:41;;;;;;;34.67;18.85;;;1.90;99.90;;;;;;5003573;28;20202;-74
2023/01/30 08:18:28;;;;;;;35.53;19.08;;;1.90;99.90;;;;;;5016822;28;20206;-73
2023/01/30 08:21:14;;;;;;;24.98;16.10;;;1.90;99.90;;;;;;5020096;28;20288;-74
2023/01/30 08:24:01;;;;;;;25.02;15.13;;;1.90;99.90;;;;;;5015324;28;20204;-74
2023/01/30 08:26:48;;;;;;;24.65;16.05;;;1.90;99.90;;;;;;5009711;28;20600;-73
2023/01/30 08:29:33;;;;;;;24.40;15.20;;;1.90;99.90;;;;;;5015479;28;20287;-74
2023/01/30 08:32:19;;;;;;;23.73;15.35;;;1.90;99.90;;;;;;5020746;28;20202;-74
2023/01/30 08:35:06;;;;;;;20.45;14.98;;;1.90;99.90;;;;;;5014100;28;20199;-74
2023/01/30 08:37:51;;;;;;;27.25;16.95;;;1.90;99.90;;;;;;5029743;28;20241;-74
2023/01/30 08:40:38;;;;;;;25.05;15.65;;;1.90;99.90;;;;;;5021142;28;20301;-73
2023/01/30 08:43:24;;;;;;;26.13;17.02;;;1.80;99.90;;;;;;5022123;28;20202;-74
2023/01/30 08:46:09;;;;;;;25.17;17.13;;;1.90;99.90;;;;;;5008442;28;20589;-74
2023/01/30 08:48:55;;;;;;;24.27;16.83;;;1.90;99.90;;;;;;5025058;28;20205;-73
2023/01/30 08:51:41;;;;;;;22.48;14.90;;;2.00;99.90;;;;;;5024289;28;20562;-74
2023/01/30 08:54:26;;;;;;;24.35;15.85;;;2.10;99.90;;;;;;5010353;28;20203;-74
2023/01/30 08:57:14;;;;;;;25.42;15.27;;;2.10;99.90;;;;;;5026741;28;20301;-74
2023/01/30 09:00:00;;;;;;;23.23;15.15;;;2.20;99.90;;;;;;5018120;28;20336;-74
2023/01/30 09:02:45;;;;;;;25.45;17.10;;;2.20;99.90;;;;;;5024968;28;20292;-74
2023/01/30 09:05:31;;;;;;;22.50;14.50;;;2.20;99.90;;;;;;5016835;28;20221;-74
2023/01/30 09:08:17;;;;;;;24.30;16.08;;;2.10;99.90;;;;;;5020851;28;20206;-74
2023/01/30 09:11:05;;;;;;;22.40;14.80;;;2.10;99.90;;;;;;5027355;28;20707;-74
2023/01/30 09:13:52;;;;;;;20.25;14.38;;;2.10;99.90;;;;;;5018603;28;20898;-74
2023/01/30 09:16:38;;;;;;;19.88;14.80;;;2.10;99.90;;;;;;5013316;28;20230;-74
2023/01/30 09:19:24;;;;;;;20.88;14.18;;;2.10;99.90;;;;;;5017249;28;20201;-74
2023/01/30 09:22:09;;;;;;;21.00;14.57;;;2.10;99.90;;;;;;5022503;28;20675;-74
2023/01/30 09:24:55;;;;;;;19.83;13.77;;;2.10;99.90;;;;;;5009169;28;20225;-74
2023/01/30 09:27:43;;;;;;;23.00;15.27;;;2.20;99.90;;;;;;5020037;28;20226;-74
2023/01/30 09:30:30;;;;;;;18.52;13.25;;;2.20;99.90;;;;;;5011566;28;20210;-73
2023/01/30 09:33:19;;;;;;;20.00;13.63;;;2.30;99.90;;;;;;5015564;28;20697;-74
2023/01/30 09:36:05;;;;;;;17.40;12.40;;;2.30;99.90;;;;;;5015645;28;20230;-74
2023/01/30 09:38:51;;;;;;;20.88;15.82;;;2.30;99.90;;;;;;5027834;28;20278;-74
2023/01/30 09:41:56;;;;;;;14.98;11.23;;;2.40;99.90;;;;;;5026460;28;20210;-73
2023/01/30 09:45:01;;;;;;;19.98;12.43;;;2.40;99.90;;;;;;5014207;28;20308;-74
2023/01/30 09:47:54;;;;;;;21.13;13.05;;;2.50;99.90;;;;;;5025313;28;20233;-73
2023/01/30 09:50:53;;;;;;;18.02;13.43;;;2.50;99.90;;;;;;5027106;28;20529;-73
2023/01/30 09:53:56;;;;;;;16.88;12.70;;;2.50;99.90;;;;;;5002910;28;20223;-74
2023/01/30 09:56:42;;;;;;;18.80;11.70;;;2.50;99.90;;;;;;5019877;28;20262;-74
2023/01/30 09:59:35;;;;;;;19.63;12.45;;;2.60;99.90;;;;;;5028940;28;20210;-74
2023/01/30 10:02:41;;;;;;;16.67;10.73;;;2.70;99.90;;;;;;5021773;28;20252;-74
2023/01/30 10:05:35;;;;;;;17.40;10.80;;;2.60;99.90;;;;;;5016483;28;20220;-74
2023/01/30 10:08:41;;;;;;;18.35;11.43;;;2.60;99.90;;;;;;5016427;28;20202;-74
2023/01/30 10:11:40;;;;;;;18.73;12.93;;;2.60;99.90;;;;;;5019952;28;20284;-74
2023/01/30 10:14:51;;;;;;;21.27;13.80;;;2.50;99.90;;;;;;5006581;28;20265;-73
2023/01/30 10:17:51;;;;;;;16.58;11.77;;;2.50;99.90;;;;;;5027410;28;20230;-74
2023/01/30 10:20:48;;;;;;;18.25;12.10;;;2.60;99.90;;;;;;5024809;28;20329;-74
2023/01/30 10:23:52;;;;;;;15.25;11.15;;;2.60;99.90;;;;;;5008223;28;20206;-74
2023/01/30 10:26:41;;;;;;;20.95;12.32;;;2.60;99.90;;;;;;5025384;28;20360;-74
2023/01/30 10:29:31;;;;;;;15.68;11.20;;;2.60;99.90;;;;;;5028675;28;20276;-74
2023/01/30 10:32:24;;;;;;;20.17;11.95;;;2.70;99.90;;;;;;5015995;28;20202;-74
2023/01/30 10:35:17;;;;;;;17.73;12.00;;;2.70;99.90;;;;;;5018435;28;20197;-74
2023/01/30 10:38:13;;;;;;;14.27;10.70;;;2.70;99.90;;;;;;5028626;28;20447;-74
2023/01/30 10:41:04;;;;;;;13.32;10.18;;;2.80;99.90;;;;;;5031846;28;20205;-73
2023/01/30 10:43:59;;;;;;;16.75;10.57;;;2.70;99.90;;;;;;4999437;28;20206;-74
2023/01/30 10:47:12;;;;;;;14.75;10.68;;;2.70;99.90;;;;;;5017744;28;20258;-73
2023/01/30 10:50:02;;;;;;;16.95;11.20;;;2.70;99.90;;;;;;5025795;28;20216;-74
2023/01/30 10:52:55;;;;;;;17.77;11.60;;;2.80;99.90;;;;;;5001099;28;20354;-74
2023/01/30 10:55:47;;;;;;;15.23;11.52;;;2.80;99.90;;;;;;5024738;28;20221;-74
2023/01/30 10:58:40;;;;;;;14.38;10.88;;;2.80;99.90;;;;;;5029053;28;20212;-74
2023/01/30 11:01:32;;;;;;;16.90;11.45;;;2.80;99.90;;;;;;5022011;28;20201;-74
2023/01/30 11:04:26;;;;;;;14.73;9.55;;;2.80;99.90;;;;;;5020438;28;20599;-74
2023/01/30 11:07:13;;;;;;;14.77;10.05;;;2.90;99.90;;;;;;5029214;28;20584;-73
2023/01/30 11:09:59;;;;;;;14.45;10.90;;;2.90;99.90;;;;;;5026644;28;20683;-73
2023/01/30 11:12:46;;;;;;;15.40;10.75;;;2.90;99.90;;;;;;5017208;28;20311;-74
2023/01/30 11:15:39;;;;;;;12.55;9.20;;;3.00;99.90;;;;;;5019981;28;20209;-74
2023/01/30 11:18:26;;;;;;;22.75;13.70;;;3.10;99.90;;;;;;5008807;28;20215;-74
2023/01/30 11:21:20;;;;;;;14.57;10.35;;;3.20;99.90;;;;;;5008772;28;20202;-74
2023/01/30 11:24:15;;;;;;;26.92;16.17;;;3.10;99.90;;;;;;5009194;28;20209;-73
2023/01/30 11:27:11;;;;;;;22.10;13.93;;;3.10;99.90;;;;;;5019607;28;20275;-74
2023/01/30 11:30:14;;;;;;;26.40;18.40;;;3.20;99.90;;;;;;5027071;28;20210;-73
2023/01/30 11:33:10;;;;;;;21.70;14.45;;;3.30;99.90;;;;;;4999190;28;20209;-74
2023/01/30 11:35:58;;;;;;;16.48;11.85;;;3.30;99.90;;;;;;5005692;28;20305;-73
2023/01/30 11:38:57;;;;;;;18.05;11.52;;;3.30;99.90;;;;;;5032510;22;20241;-75
2023/01/30 11:41:44;;;;;;;21.17;14.80;;;3.40;99.90;;;;;;5007114;28;20237;-74
2023/01/30 11:44:31;;;;;;;12.88;10.13;;;3.50;99.90;;;;;;5024105;28;20971;-73
2023/01/30 11:47:23;;;;;;;16.02;9.07;;;3.50;99.90;;;;;;5011308;28;20226;-73
2023/01/30 11:50:16;;;;;;;12.73;9.25;;;3.60;99.90;;;;;;5013910;28;20276;-74
2023/01/30 11:53:06;;;;;;;13.10;9.10;;;3.60;99.90;;;;;;5013510;28;20453;-74
2023/01/30 11:55:54;;;;;;;11.38;8.40;;;3.60;99.90;;;;;;5018212;28;20206;-75
2023/01/30 11:58:45;;;;;;;12.10;8.98;;;3.80;99.90;;;;;;5017506;28;20222;-74
2023/01/30 12:01:34;;;;;;;9.38;7.20;;;3.90;99.90;;;;;;5018876;28;20206;-74
2023/01/30 12:04:22;;;;;;;8.75;6.95;;;3.90;99.90;;;;;;5017699;28;20214;-74
2023/01/30 12:07:16;;;;;;;9.52;7.10;;;3.90;99.90;;;;;;5016830;28;20242;-74
2023/01/30 12:10:25;;;;;;;19.42;6.97;;;4.00;99.90;;;;;;5022558;28;20244;-76
2023/01/30 12:13:19;;;;;;;10.18;6.85;;;4.10;99.90;;;;;;5023887;28;20220;-72
2023/01/30 12:16:16;;;;;;;9.77;6.43;;;4.10;99.90;;;;;;5023773;28;20329;-75
2023/01/30 12:19:07;;;;;;;8.80;6.85;;;4.10;99.90;;;;;;5022890;28;20206;-75
2023/01/30 12:22:01;;;;;;;9.45;6.90;;;4.20;99.90;;;;;;5028917;28;20604;-73
2023/01/30 12:24:57;;;;;;;8.57;7.05;;;4.20;99.90;;;;;;5024614;28;20208;-74
2023/01/30 12:27:48;;;;;;;8.98;6.55;;;4.20;99.90;;;;;;5017942;28;20222;-74
2023/01/30 12:30:39;;;;;;;11.00;7.50;;;4.20;99.90;;;;;;5020945;28;20702;-74
2023/01/30 12:33:30;;;;;;;8.63;6.15;;;4.30;99.90;;;;;;5020644;28;20204;-74
2023/01/30 12:36:30;;;;;;;8.32;6.18;;;4.30;99.90;;;;;;5020939;28;20217;-74
2023/01/30 12:39:32;;;;;;;9.60;6.40;;;4.30;99.90;;;;;;5014701;28;21213;-74
2023/01/30 12:43:02;;;;;;;9.10;6.30;;;4.30;99.90;;;;;;5024610;28;20292;-75
2023/01/30 12:45:56;;;;;;;8.60;6.60;;;4.30;99.90;;;;;;5012514;28;20254;-74
2023/01/30 12:49:19;;;;;;;8.23;5.85;;;4.30;99.90;;;;;;5026829;28;20887;-75
2023/01/30 12:52:31;;;;;;;10.63;6.85;;;4.30;99.90;;;;;;5028172;28;20206;-75
2023/01/30 12:55:28;;;;;;;8.65;5.90;;;4.30;99.90;;;;;;5013534;28;20273;-74
2023/01/30 12:58:20;;;;;;;9.10;6.28;;;4.40;99.90;;;;;;5026393;28;20361;-74
2023/01/30 13:01:23;;;;;;;9.25;6.07;;;4.40;99.90;;;;;;5017709;28;20218;-75
2023/01/30 13:04:20;;;;;;;8.25;6.15;;;4.40;99.90;;;;;;5014514;28;20571;-74
2023/01/30 13:07:17;;;;;;;7.05;5.35;;;4.50;99.90;;;;;;5018531;28;20245;-73
2023/01/30 13:10:12;;;;;;;8.07;6.25;;;4.60;99.90;;;;;;5016796;28;20604;-74
2023/01/30 13:13:10;;;;;;;7.50;5.60;;;4.70;99.90;;;;;;5023877;28;20197;-73
2023/01/30 13:16:05;;;;;;;9.88;4.60;;;4.70;99.90;;;;;;5019535;28;20217;-74
2023/01/30 13:18:55;;;;;;;5.97;4.75;;;4.80;99.90;;;;;;5004674;28;20380;-75
2023/01/30 13:21:49;;;;;;;7.28;5.05;;;4.80;99.90;;;;;;5020189;28;20206;-74
2023/01/30 13:24:49;;;;;;;5.93;4.78;;;4.80;99.90;;;;;;5027949;28;20206;-74
2023/01/30 13:27:39;;;;;;;7.30;4.20;;;4.90;99.90;;;;;;5024720;28;20773;-75
2023/01/30 13:30:27;;;;;;;6.38;4.53;;;4.90;99.90;;;;;;5018840;28;20667;-74
2023/01/30 13:33:15;;;;;;;5.78;4.70;;;4.90;99.90;;;;;;5024048;28;20218;-75
2023/01/30 13:36:10;;;;;;;6.95;4.47;;;4.90;99.90;;;;;;5023574;28;20246;-74
2023/01/30 13:39:00;;;;;;;6.13;4.55;;;5.00;99.90;;;;;;5023495;28;20292;-75
2023/01/30 13:41:51;;;;;;;6.70;4.93;;;5.00;99.90;;;;;;5025227;28;20202;-74
2023/01/30 13:44:42;;;;;;;11.15;5.00;;;5.00;99.90;;;;;;5022151;28;20209;-74
2023/01/30 13:47:42;;;;;;;7.20;4.47;;;5.10;99.90;;;;;;5014163;28;20226;-75
2023/01/30 13:50:43;;;;;;;6.47;4.88;;;5.00;99.90;;;;;;5013233;28;20206;-75
2023/01/30 13:53:34;;;;;;;8.15;5.28;;;5.10;99.90;;;;;;5022951;28;20584;-74
2023/01/30 13:56:28;;;;;;;8.30;5.15;;;5.20;99.90;;;;;;5023337;28;20689;-75
2023/01/30 13:59:30;;;;;;;6.28;4.95;;;5.30;99.90;;;;;;5020610;28;20206;-75
2023/01/30 14:02:21;;;;;;;8.65;5.90;;;5.30;99.90;;;;;;5013045;28;20244;-75
2023/01/30 14:05:09;;;;;;;7.93;5.70;;;5.30;99.90;;;;;;5027471;28;20198;-75
2023/01/30 14:07:56;;;;;;;9.35;4.90;;;5.30;99.90;;;;;;5021100;28;20222;-75
2023/01/30 14:10:41;;;;;;;7.85;5.45;;;5.30;99.90;;;;;;5026932;28;20209;-74
2023/01/30 14:13:27;;;;;;;13.40;7.38;;;5.30;99.90;;;;;;5026206;28;20695;-75
2023/01/30 14:16:14;;;;;;;11.85;6.60;;;5.30;99.90;;;;;;5023073;28;20201;-74
2023/01/30 14:19:00;;;;;;;31.77;11.05;;;5.30;99.90;;;;;;5015767;28;20766;-75
2023/01/30 14:21:56;;;;;;;11.50;6.93;;;5.30;99.90;;;;;;5016261;28;20214;-74
2023/01/30 14:24:42;;;;;;;14.52;7.95;;;5.30;99.90;;;;;;5023156;28;20209;-73
2023/01/30 14:27:30;;;;;;;8.20;5.95;;;5.30;99.90;;;;;;5015328;28;20745;-74
2023/01/30 14:30:36;;;;;;;10.75;5.93;;;5.20;99.90;;;;;;5021861;28;20574;-74
2023/01/30 14:33:34;;;;;;;8.85;6.47;;;5.20;99.90;;;;;;5020190;28;20275;-74
2023/01/30 14:36:37;;;;;;;6.57;5.05;;;5.30;99.90;;;;;;5013576;28;20202;-75
2023/01/30 14:39:40;;;;;;;5.78;5.18;;;5.20;99.90;;;;;;5019847;28;20710;-75
2023/01/30 14:42:27;;;;;;;9.15;7.07;;;5.20;99.90;;;;;;5025701;28;20205;-75
2023/01/30 14:45:16;;;;;;;7.35;5.50;;;5.10;99.90;;;;;;5020306;28;20212;-74